Marble Canyon, AZ (86036)

3:08 PM MST on October 23, 2014 (GMT -0700)
Page Municipal | Change Station
CLOSE
Current Station
Airport
Location: Page,
Elevation: 4308 ft
Nearby Weather Stations

Elev 4308 ft 36.92 °N, 111.45 °W | Updated 15 minutes ago

Clear
Clear
76 °F
Feels Like 76 °F
N
5
Wind Variable Wind from NE

Today
High -- | Low -- °F
--% Chance of Precip.
Yesterday
High -- | Low -- °F
Precip. -- in
6:41 AM 5:39 PM
New Moon, 0% visible
Pressure 30.00 in
Visibility 10.0 miles
Clouds Clear
Dew Point 31 °F
Humidity 19%
Rainfall 0.00 in
Snow Depth Not available.
UV 3 out of 12
Pollen 3.80 out of 12
Air Quality Not available.
Flu Activity No Activity
METAR KPGA 232153Z AUTO 05004KT 10SM CLR 24/M01 A3014 RMK AO2 SLP158 T02441006

More Conditions Fewer Conditions

Pressure 30.00 in
Visibility 10.0 miles
Clouds Clear
Dew Point 31 °F
Humidity 19%
Rainfall 0.00 in
Snow Depth Not available.
UV 3 out of 12
Pollen 3.80 out of 12
Air Quality Not available.
Flu Activity No Activity
METAR KPGA 232153Z AUTO 05004KT 10SM CLR 24/M01 A3014 RMK AO2 SLP158 T02441006

More Conditions Fewer Conditions

10-Day Weather Forecast

Almanac

Astronomy

Oct. 23, 2014 Rise Set
Actual Time 6:41 AM MST 5:39 PM MST
Civil Twilight 6:15 AM MST 6:05 PM MST
Nautical Twilight 5:44 AM MST 6:36 PM MST
Astronomical Twilight 5:14 AM MST 7:06 PM MST
Moon 6:25 AM MST 5:43 PM MST
Length of Visible Light 11h 50m
Length of Day
10h 57m
Tomorrow will be 2m 11s shorter.
New Moon, 0% of the Moon is Illuminated
Today
New Moon
Oct 30
First Quarter
Nov 6
Full
Nov 14
Last Quarter
Nov 22
New

Today's Extremes

State Highs State Lows

Community

WunderPhotos

Upload Photos

1,764,383 photos uploaded!

WunderBlogs® & News

Nearby

Snow Depth

Station Depth Elevation
Baldy 0 in 9125 ft
Hannagan Meadows 0 in 9020 ft
Beaver Head 0 in 7990 ft

Earthquake Activity

City Distance Mag. Time & Date
No recent earthquake activity has been reported nearby.
Minimum magnitude displayed is 2.5.

Coastal Water Temperatures

Place Temperature
No Stations Reporting

Nearby Weather Stations